Time;durP1;ratioP1;P1;durP2;ratioP2;P2;SDS_P1;SDS_P2;PMS_P1;PMS_P2;Temp;Humidity;BMP_temperature;BMP_pressure;BME280_temperature;BME280_humidity;BME280_pressure;Samples;Min_cycle;Max_cycle;Signal;HPM_P1;HPM_P2
2022/12/28 00:02:24;;;;;;;12.00;5.10;;;5.70;99.90;;;;;;4841395;29;20049;-61
2022/12/28 00:04:50;;;;;;;15.80;4.82;;;5.70;99.90;;;;;;4843275;29;20093;-61
2022/12/28 00:07:16;;;;;;;11.75;5.05;;;5.70;99.90;;;;;;4841657;29;20054;-61
2022/12/28 00:09:42;;;;;;;12.23;5.03;;;5.60;99.90;;;;;;4839688;29;20463;-61
2022/12/28 00:12:08;;;;;;;10.00;5.15;;;5.60;99.90;;;;;;4845030;29;20413;-61
2022/12/28 00:14:34;;;;;;;13.25;5.40;;;5.70;99.90;;;;;;4845362;29;20145;-62
2022/12/28 00:16:59;;;;;;;11.95;5.13;;;5.60;99.90;;;;;;4841485;29;20072;-61
2022/12/28 00:19:25;;;;;;;14.73;4.85;;;5.60;99.90;;;;;;4826677;29;20049;-61
2022/12/28 00:21:52;;;;;;;11.23;4.95;;;5.60;99.90;;;;;;4843718;29;20058;-62
2022/12/28 00:24:21;;;;;;;10.90;5.50;;;5.70;99.90;;;;;;4843407;29;20531;-62
2022/12/28 00:26:47;;;;;;;14.40;5.05;;;5.60;99.90;;;;;;4840247;29;20079;-61
2022/12/28 00:29:14;;;;;;;15.27;5.50;;;5.60;99.90;;;;;;4843445;29;20122;-61
2022/12/28 00:31:40;;;;;;;10.25;5.35;;;5.60;99.90;;;;;;4841580;29;20092;-62
2022/12/28 00:34:06;;;;;;;12.65;6.20;;;5.70;99.90;;;;;;4844121;29;20060;-62
2022/12/28 00:36:32;;;;;;;15.07;5.45;;;5.70;99.90;;;;;;4843573;29;20058;-61
2022/12/28 00:38:58;;;;;;;15.25;5.68;;;5.60;99.90;;;;;;4841165;29;20046;-63
2022/12/28 00:41:24;;;;;;;13.45;5.97;;;5.60;99.90;;;;;;4845160;29;20141;-61
2022/12/28 00:43:50;;;;;;;10.90;5.68;;;5.60;99.90;;;;;;4846389;29;20081;-62
2022/12/28 00:46:16;;;;;;;13.02;6.50;;;5.60;99.90;;;;;;4823768;29;20088;-61
2022/12/28 00:48:43;;;;;;;15.90;6.05;;;5.60;99.90;;;;;;4825499;29;20176;-62
2022/12/28 00:51:13;;;;;;;16.13;6.13;;;5.70;99.90;;;;;;4844038;29;20060;-60
2022/12/28 00:53:39;;;;;;;11.55;6.10;;;5.70;99.90;;;;;;4841446;29;20054;-62
2022/12/28 00:56:14;;;;;;;12.00;6.38;;;5.70;99.90;;;;;;4841723;29;20049;-61
2022/12/28 00:58:40;;;;;;;14.48;6.20;;;5.70;99.90;;;;;;4824019;29;20072;-62
2022/12/28 01:01:15;;;;;;;11.85;6.32;;;5.70;99.90;;;;;;4840222;29;20685;-62
2022/12/28 01:03:41;;;;;;;14.18;6.88;;;5.70;99.90;;;;;;4843490;29;20042;-62
2022/12/28 01:06:08;;;;;;;9.10;5.78;;;5.80;99.90;;;;;;4825669;29;20180;-61
2022/12/28 01:08:38;;;;;;;9.20;5.15;;;5.80;99.90;;;;;;4841098;29;20053;-62
2022/12/28 01:11:25;;;;;;;13.20;5.82;;;5.80;99.90;;;;;;4841165;29;20065;-61
2022/12/28 01:13:53;;;;;;;12.82;6.25;;;5.80;99.90;;;;;;4843992;29;20508;-62
2022/12/28 01:16:25;;;;;;;14.88;5.72;;;5.80;99.90;;;;;;4842538;29;20057;-61
2022/12/28 01:18:53;;;;;;;11.63;5.88;;;5.80;99.90;;;;;;4842556;29;20058;-62
2022/12/28 01:21:24;;;;;;;12.75;5.68;;;5.80;99.90;;;;;;4845983;29;20053;-62
2022/12/28 01:23:53;;;;;;;12.93;6.20;;;5.80;99.90;;;;;;4844318;29;20049;-62
2022/12/28 01:26:20;;;;;;;11.10;5.60;;;5.80;99.90;;;;;;4845871;29;20053;-60
2022/12/28 01:28:45;;;;;;;13.38;5.93;;;5.80;99.90;;;;;;4844035;29;20060;-61
2022/12/28 01:31:14;;;;;;;11.63;5.43;;;5.80;99.90;;;;;;4833194;29;20396;-62
2022/12/28 01:33:40;;;;;;;13.00;6.03;;;5.80;99.90;;;;;;4843392;29;20046;-62
2022/12/28 01:36:19;;;;;;;17.00;6.30;;;5.80;99.90;;;;;;4826165;29;20054;-62
2022/12/28 01:38:46;;;;;;;11.80;6.38;;;5.70;99.90;;;;;;4818082;29;20489;-62
2022/12/28 01:41:15;;;;;;;8.50;5.53;;;5.80;99.90;;;;;;4844295;29;20049;-61
2022/12/28 01:43:52;;;;;;;9.57;5.88;;;5.80;99.90;;;;;;4843200;29;20060;-62
2022/12/28 01:46:35;;;;;;;11.18;6.05;;;5.80;99.90;;;;;;4841787;29;20483;-62
2022/12/28 01:49:05;;;;;;;12.38;6.20;;;5.80;99.90;;;;;;4842347;29;20056;-61
2022/12/28 01:51:42;;;;;;;14.30;6.05;;;5.80;99.90;;;;;;4844112;29;20060;-61
2022/12/28 01:54:08;;;;;;;13.57;6.35;;;5.80;99.90;;;;;;4842397;29;20060;-61
2022/12/28 01:56:35;;;;;;;12.35;6.40;;;5.80;99.90;;;;;;4841818;29;20058;-62
2022/12/28 01:59:01;;;;;;;13.57;6.18;;;5.80;99.90;;;;;;4839665;29;20132;-62
2022/12/28 02:01:27;;;;;;;14.32;6.53;;;5.80;99.90;;;;;;4843238;29;20045;-60
2022/12/28 02:03:53;;;;;;;13.45;6.45;;;5.80;99.90;;;;;;4843081;29;20057;-62
2022/12/28 02:06:18;;;;;;;14.75;6.93;;;5.80;99.90;;;;;;4843184;29;20465;-60
2022/12/28 02:08:52;;;;;;;14.38;6.43;;;5.80;99.90;;;;;;4843391;29;20057;-61
2022/12/28 02:11:19;;;;;;;13.25;6.75;;;5.80;99.90;;;;;;4826339;29;20102;-60
2022/12/28 02:13:50;;;;;;;11.60;6.57;;;5.80;99.90;;;;;;4843391;29;20049;-61
2022/12/28 02:16:16;;;;;;;13.65;7.45;;;5.80;99.90;;;;;;4838083;29;20076;-61
2022/12/28 02:18:43;;;;;;;12.85;7.40;;;5.90;99.90;;;;;;4841939;29;20124;-60
2022/12/28 02:21:35;;;;;;;13.43;7.25;;;5.80;99.90;;;;;;4828870;29;20045;-61
2022/12/28 02:24:18;;;;;;;14.57;7.45;;;5.90;99.90;;;;;;4827051;29;20121;-62
2022/12/28 02:26:52;;;;;;;14.93;7.53;;;5.80;99.90;;;;;;4842591;29;20424;-61
2022/12/28 02:29:24;;;;;;;12.77;8.00;;;5.80;99.90;;;;;;4827043;29;20456;-62
2022/12/28 02:32:27;;;;;;;14.85;7.28;;;5.80;99.90;;;;;;4841555;29;20061;-62
2022/12/28 02:35:16;;;;;;;14.93;7.88;;;5.80;99.90;;;;;;4841947;29;20140;-61
2022/12/28 02:37:47;;;;;;;14.25;8.48;;;5.80;99.90;;;;;;4842756;29;20052;-62
2022/12/28 02:40:16;;;;;;;11.02;7.60;;;5.80;99.90;;;;;;4842556;29;20101;-62
2022/12/28 02:42:43;;;;;;;16.58;8.25;;;5.80;99.90;;;;;;4844212;29;20045;-62
2022/12/28 02:51:14;;;;;;;13.85;7.30;;;5.80;99.90;;;;;;4843051;29;20058;-61
2022/12/28 02:56:05;;;;;;;12.02;7.65;;;5.80;99.90;;;;;;4842913;29;20057;-61
2022/12/28 02:57:13;;;;;;;16.27;7.43;;;5.80;99.90;;;;;;4841104;29;20505;-61
2022/12/28 02:59:48;;;;;;;12.88;7.22;;;5.80;99.90;;;;;;4842870;29;20561;-62
2022/12/28 03:02:29;;;;;;;13.57;7.70;;;5.90;99.90;;;;;;4841441;29;20050;-62
2022/12/28 03:08:42;;;;;;;13.80;8.23;;;5.90;99.90;;;;;;4840567;29;20144;-61
2022/12/28 03:11:10;;;;;;;13.38;8.80;;;5.90;99.90;;;;;;4839958;29;20077;-62
2022/12/28 03:13:55;;;;;;;14.48;8.48;;;5.90;99.90;;;;;;4843849;29;20521;-61
2022/12/28 03:16:28;;;;;;;14.05;9.57;;;5.90;99.90;;;;;;4838779;29;20050;-61
2022/12/28 03:33:02;;;;;;;21.98;13.20;;;6.10;99.90;;;;;;4830756;29;20733;-61
2022/12/28 03:35:39;;;;;;;17.80;11.60;;;6.20;99.90;;;;;;4844937;29;20512;-61
2022/12/28 03:38:09;;;;;;;20.83;13.27;;;6.20;99.90;;;;;;4844795;29;20088;-60
2022/12/28 03:40:44;;;;;;;19.05;12.40;;;6.20;99.90;;;;;;4845137;29;20401;-61
2022/12/28 03:46:12;;;;;;;19.23;12.82;;;6.30;99.90;;;;;;4843861;29;20100;-61
2022/12/28 03:48:40;;;;;;;15.32;10.48;;;6.30;99.90;;;;;;4843758;29;20131;-61
2022/12/28 03:51:06;;;;;;;21.52;11.43;;;6.30;99.90;;;;;;4842828;29;20053;-60
2022/12/28 03:53:43;;;;;;;18.13;12.30;;;6.40;99.90;;;;;;4844461;29;20058;-61
2022/12/28 03:56:12;;;;;;;15.50;10.80;;;6.40;99.90;;;;;;4843132;29;20052;-60
2022/12/28 03:58:38;;;;;;;16.73;11.45;;;6.40;99.90;;;;;;4830203;29;20060;-61
2022/12/28 04:01:05;;;;;;;18.13;12.10;;;6.40;99.90;;;;;;4842648;29;20061;-61
2022/12/28 04:03:31;;;;;;;17.10;10.10;;;6.40;99.90;;;;;;4842884;29;20053;-61
2022/12/28 04:05:57;;;;;;;13.27;10.13;;;6.40;99.90;;;;;;4839872;29;20160;-61
2022/12/28 04:08:23;;;;;;;13.57;8.90;;;6.40;99.90;;;;;;4841764;29;20050;-61
2022/12/28 04:10:48;;;;;;;14.32;10.10;;;6.40;99.90;;;;;;4844833;29;20553;-61
2022/12/28 04:13:14;;;;;;;11.52;8.25;;;6.50;99.90;;;;;;4845796;29;20071;-61
2022/12/28 04:15:40;;;;;;;15.23;9.93;;;6.50;99.90;;;;;;4842756;29;20065;-61
2022/12/28 04:18:06;;;;;;;11.10;8.32;;;6.50;99.90;;;;;;4846349;29;20132;-61
2022/12/28 04:20:31;;;;;;;11.77;8.63;;;6.50;99.90;;;;;;4844837;29;20125;-62
2022/12/28 04:22:57;;;;;;;15.02;9.52;;;6.50;99.90;;;;;;4846865;29;20042;-61
2022/12/28 04:25:23;;;;;;;14.10;9.23;;;6.50;99.90;;;;;;4844400;29;20402;-61
2022/12/28 04:27:49;;;;;;;11.50;8.82;;;6.50;99.90;;;;;;4844805;29;20053;-61
2022/12/28 04:30:15;;;;;;;10.50;8.02;;;6.50;99.90;;;;;;4844408;29;20062;-61
2022/12/28 04:32:41;;;;;;;11.75;9.00;;;6.50;99.90;;;;;;4843893;29;20049;-61
2022/12/28 04:35:07;;;;;;;9.82;8.15;;;6.60;99.90;;;;;;4844120;29;20050;-61
2022/12/28 04:37:36;;;;;;;12.50;8.45;;;6.60;99.90;;;;;;4841530;29;20721;-61
2022/12/28 04:40:02;;;;;;;12.52;8.23;;;6.60;99.90;;;;;;4841009;29;20057;-61
2022/12/28 04:42:27;;;;;;;9.68;8.00;;;6.60;99.90;;;;;;4828386;29;20062;-60
2022/12/28 04:44:53;;;;;;;11.60;8.20;;;6.60;99.90;;;;;;4844678;29;20049;-61
2022/12/28 04:47:19;;;;;;;13.20;9.70;;;6.60;99.90;;;;;;4841973;29;20045;-61
2022/12/28 04:49:45;;;;;;;9.80;7.75;;;6.60;99.90;;;;;;4843507;29;20050;-61
2022/12/28 04:52:11;;;;;;;9.85;8.05;;;6.60;99.90;;;;;;4843153;29;20045;-60
2022/12/28 04:54:37;;;;;;;9.98;8.05;;;6.60;99.90;;;;;;4843556;29;20414;-60
2022/12/28 04:57:02;;;;;;;9.93;8.07;;;6.60;99.90;;;;;;4826334;29;20136;-60
2022/12/28 04:59:28;;;;;;;12.23;8.90;;;6.60;99.90;;;;;;4843136;29;20053;-61
2022/12/28 05:01:54;;;;;;;10.95;8.77;;;6.70;99.90;;;;;;4837031;29;20056;-61
2022/12/28 05:04:20;;;;;;;12.52;9.20;;;6.70;99.90;;;;;;4837222;29;20117;-60
2022/12/28 05:06:45;;;;;;;10.63;9.13;;;6.70;99.90;;;;;;4841626;29;20089;-61
2022/12/28 05:09:11;;;;;;;11.65;8.82;;;6.80;99.90;;;;;;4840786;29;20057;-59
2022/12/28 05:11:37;;;;;;;14.15;8.75;;;6.70;99.90;;;;;;4841814;29;20097;-60
2022/12/28 05:14:03;;;;;;;11.32;9.20;;;6.80;99.90;;;;;;4842882;29;20057;-60
2022/12/28 05:16:29;;;;;;;12.77;9.50;;;6.80;99.90;;;;;;4842831;29;20068;-61
2022/12/28 05:18:56;;;;;;;13.80;9.75;;;6.80;99.90;;;;;;4844627;29;20469;-61
2022/12/28 05:21:24;;;;;;;11.82;9.68;;;6.80;99.90;;;;;;4844813;29;20056;-61
2022/12/28 05:23:51;;;;;;;14.63;9.98;;;6.90;99.90;;;;;;4842754;29;20100;-61
2022/12/28 05:26:19;;;;;;;12.68;10.25;;;6.90;99.90;;;;;;4843306;29;20061;-60
2022/12/28 05:28:45;;;;;;;13.63;10.68;;;6.90;99.90;;;;;;4845156;29;20061;-59
2022/12/28 05:31:17;;;;;;;13.82;10.50;;;6.90;99.90;;;;;;4842644;29;20565;-61
2022/12/28 05:33:43;;;;;;;13.93;10.63;;;7.00;99.90;;;;;;4845883;29;20049;-61
2022/12/28 05:36:12;;;;;;;16.60;11.85;;;7.00;99.90;;;;;;4843909;29;20081;-61
2022/12/28 05:38:39;;;;;;;15.63;11.50;;;7.00;99.90;;;;;;4844592;29;20045;-61
2022/12/28 05:41:12;;;;;;;14.60;11.63;;;7.00;99.90;;;;;;4841638;29;20064;-61
2022/12/28 05:43:38;;;;;;;19.10;12.77;;;7.00;99.90;;;;;;4845062;29;20114;-60
2022/12/28 05:46:07;;;;;;;17.80;13.25;;;7.10;99.90;;;;;;4839826;29;20057;-61
2022/12/28 05:48:35;;;;;;;20.02;13.57;;;7.10;99.90;;;;;;4842249;29;20053;-61
2022/12/28 05:51:04;;;;;;;18.73;13.75;;;7.10;99.90;;;;;;4828427;29;20413;-60
2022/12/28 05:53:31;;;;;;;19.40;13.55;;;7.10;99.90;;;;;;4844824;29;20124;-62
2022/12/28 05:56:04;;;;;;;19.70;14.40;;;7.10;99.90;;;;;;4833187;29;20053;-61
2022/12/28 05:58:30;;;;;;;19.27;14.02;;;7.20;99.90;;;;;;4838753;29;20090;-61
2022/12/28 06:01:03;;;;;;;23.83;16.00;;;7.20;99.90;;;;;;4839005;29;20057;-62
2022/12/28 06:03:29;;;;;;;20.45;14.70;;;7.20;99.90;;;;;;4843823;29;20046;-61
2022/12/28 06:05:55;;;;;;;20.77;15.13;;;7.20;99.90;;;;;;4840973;29;20140;-61
2022/12/28 06:08:20;;;;;;;21.48;15.38;;;7.30;99.90;;;;;;4840585;29;20045;-61
2022/12/28 06:10:46;;;;;;;21.83;15.43;;;7.30;99.90;;;;;;4839842;29;20160;-61
2022/12/28 06:13:12;;;;;;;24.80;15.77;;;7.40;99.90;;;;;;4827739;29;20049;-61
2022/12/28 06:15:38;;;;;;;20.05;14.52;;;7.40;99.90;;;;;;4838357;29;20049;-61
2022/12/28 06:18:03;;;;;;;18.73;14.10;;;7.50;99.90;;;;;;4840682;29;20054;-61
2022/12/28 06:20:29;;;;;;;21.92;14.25;;;7.50;99.90;;;;;;4843121;29;20474;-61
2022/12/28 06:22:56;;;;;;;20.83;14.13;;;7.50;99.90;;;;;;4843317;29;20085;-61
2022/12/28 06:25:22;;;;;;;18.48;14.02;;;7.60;99.90;;;;;;4827759;29;20489;-60
2022/12/28 06:27:48;;;;;;;18.10;13.45;;;7.60;99.90;;;;;;4841272;29;20046;-61
2022/12/28 06:30:13;;;;;;;19.45;13.13;;;7.70;99.90;;;;;;4825505;29;20065;-61
2022/12/28 06:32:39;;;;;;;13.90;11.95;;;7.60;99.90;;;;;;4841058;29;20060;-61
2022/12/28 06:35:05;;;;;;;17.17;11.60;;;7.70;99.90;;;;;;4844144;29;22417;-61
2022/12/28 06:37:31;;;;;;;15.30;12.40;;;7.70;99.90;;;;;;4840574;29;20508;-61
2022/12/28 06:39:57;;;;;;;14.93;11.77;;;7.70;99.90;;;;;;4813056;29;20050;-60
2022/12/28 06:42:22;;;;;;;14.38;11.40;;;7.80;99.90;;;;;;4838343;29;20076;-61
2022/12/28 06:44:48;;;;;;;15.73;11.40;;;7.70;99.90;;;;;;4841208;29;20050;-61
2022/12/28 06:47:14;;;;;;;13.02;10.35;;;7.80;99.90;;;;;;4838455;29;20136;-60
2022/12/28 06:49:40;;;;;;;13.88;11.30;;;7.80;99.90;;;;;;4841044;29;20062;-60
2022/12/28 06:52:06;;;;;;;12.00;10.40;;;7.80;99.90;;;;;;4842004;29;20041;-61
2022/12/28 06:54:31;;;;;;;15.25;10.98;;;7.80;99.90;;;;;;4840151;29;20037;-61
2022/12/28 06:56:57;;;;;;;15.30;11.50;;;7.90;99.90;;;;;;4839882;29;20136;-61
2022/12/28 06:59:23;;;;;;;14.02;11.05;;;7.90;99.90;;;;;;4826853;29;20493;-61
2022/12/28 07:01:49;;;;;;;16.10;11.38;;;7.90;99.90;;;;;;4829072;29;20457;-61
2022/12/28 07:04:14;;;;;;;14.98;11.25;;;7.90;99.90;;;;;;4840894;29;20053;-61
2022/12/28 07:06:42;;;;;;;13.38;11.18;;;7.90;99.90;;;;;;4839010;29;20068;-61
2022/12/28 07:09:12;;;;;;;17.45;11.50;;;7.90;99.90;;;;;;4840034;29;20053;-59
2022/12/28 07:11:38;;;;;;;15.73;11.07;;;8.00;99.90;;;;;;4843769;29;20100;-61
2022/12/28 07:14:04;;;;;;;14.35;10.48;;;7.90;99.90;;;;;;4841163;29;20124;-61
2022/12/28 07:16:30;;;;;;;12.73;10.68;;;8.00;99.90;;;;;;4838740;29;20063;-60
2022/12/28 07:18:57;;;;;;;15.77;10.52;;;8.00;99.90;;;;;;4843795;29;20132;-61
2022/12/28 07:21:29;;;;;;;13.95;9.88;;;8.00;99.90;;;;;;4845207;29;20057;-61
2022/12/28 07:23:56;;;;;;;16.92;10.98;;;8.00;99.90;;;;;;4846367;29;20050;-61
2022/12/28 07:26:25;;;;;;;15.52;11.15;;;8.00;99.90;;;;;;4842484;29;20045;-61
2022/12/28 07:28:53;;;;;;;13.57;10.55;;;8.00;99.90;;;;;;4840774;29;20041;-61
2022/12/28 07:31:24;;;;;;;14.68;11.52;;;8.00;99.90;;;;;;4841847;29;20056;-61
2022/12/28 07:33:52;;;;;;;18.48;12.07;;;8.10;99.90;;;;;;4847126;29;20144;-61
2022/12/28 07:36:19;;;;;;;16.48;12.20;;;8.10;99.90;;;;;;4841674;29;20053;-61
2022/12/28 07:38:45;;;;;;;19.95;12.02;;;8.10;99.90;;;;;;4843652;29;20057;-61
2022/12/28 07:41:13;;;;;;;15.55;11.18;;;8.10;99.90;;;;;;4833331;29;20120;-61
2022/12/28 07:43:40;;;;;;;18.20;12.60;;;8.10;99.90;;;;;;4837751;29;20049;-61
2022/12/28 07:46:14;;;;;;;20.42;12.15;;;8.20;99.90;;;;;;4838779;29;20046;-60
2022/12/28 07:48:41;;;;;;;18.55;11.82;;;8.20;99.90;;;;;;4823303;29;20061;-61
2022/12/28 07:51:35;;;;;;;19.45;11.73;;;8.20;99.90;;;;;;4837444;29;20089;-61
2022/12/28 07:54:01;;;;;;;21.08;11.63;;;8.30;99.90;;;;;;4843760;29;20574;-61
2022/12/28 07:56:28;;;;;;;24.95;11.65;;;8.30;99.90;;;;;;4841723;29;20045;-61
2022/12/28 07:58:57;;;;;;;15.75;10.75;;;8.30;99.90;;;;;;4839891;29;20049;-61
2022/12/28 08:01:25;;;;;;;14.45;10.77;;;8.30;99.90;;;;;;4842817;29;20082;-61
2022/12/28 08:03:56;;;;;;;21.70;11.18;;;8.40;99.90;;;;;;4842873;29;20049;-61
2022/12/28 08:06:23;;;;;;;19.30;11.13;;;8.40;99.90;;;;;;4831817;29;20091;-61
2022/12/28 08:08:55;;;;;;;16.20;10.73;;;8.50;99.90;;;;;;4829661;29;20060;-61
2022/12/28 08:11:23;;;;;;;18.10;11.65;;;8.40;99.90;;;;;;4843839;29;20061;-60
2022/12/28 08:13:50;;;;;;;19.50;11.30;;;8.40;99.90;;;;;;4844043;29;20105;-61
2022/12/28 08:16:18;;;;;;;15.85;10.00;;;8.50;99.90;;;;;;4842895;29;20504;-62
2022/12/28 08:18:44;;;;;;;15.35;10.60;;;8.50;99.90;;;;;;4844284;29;20077;-61
2022/12/28 08:21:13;;;;;;;16.33;11.25;;;8.50;99.90;;;;;;4842294;29;20575;-61
2022/12/28 08:23:39;;;;;;;17.77;11.85;;;8.50;99.90;;;;;;4843151;29;20052;-61
2022/12/28 08:26:07;;;;;;;20.40;12.63;;;8.50;99.90;;;;;;4831065;29;20057;-61
2022/12/28 08:28:34;;;;;;;18.08;12.18;;;8.50;99.90;;;;;;4837339;29;20063;-61
2022/12/28 08:31:16;;;;;;;19.02;13.20;;;8.50;99.90;;;;;;4843004;29;20049;-61
2022/12/28 08:33:42;;;;;;;21.17;13.77;;;8.50;99.90;;;;;;4841389;29;20075;-61
2022/12/28 08:36:09;;;;;;;21.77;13.23;;;8.50;99.90;;;;;;4841162;29;20173;-61
2022/12/28 08:38:37;;;;;;;20.30;12.98;;;8.50;99.90;;;;;;4839644;29;20049;-61
2022/12/28 08:41:05;;;;;;;17.52;12.25;;;8.50;99.90;;;;;;4842767;29;20038;-62
2022/12/28 08:43:33;;;;;;;17.48;13.13;;;8.50;99.90;;;;;;4845194;29;20046;-61
2022/12/28 08:46:05;;;;;;;16.75;12.75;;;8.50;99.90;;;;;;4842974;29;20084;-62
2022/12/28 08:48:31;;;;;;;16.15;11.63;;;8.50;99.90;;;;;;4843816;29;20260;-61
2022/12/28 08:51:03;;;;;;;14.27;11.60;;;8.60;99.90;;;;;;4842075;29;20128;-62
2022/12/28 08:53:29;;;;;;;12.50;11.20;;;8.50;99.90;;;;;;4842586;29;20136;-60
2022/12/28 08:55:55;;;;;;;15.30;10.13;;;8.50;99.90;;;;;;4842403;29;20045;-61
2022/12/28 08:58:21;;;;;;;14.57;10.10;;;8.60;99.90;;;;;;4839508;29;20042;-62
2022/12/28 09:00:47;;;;;;;13.43;9.20;;;8.60;99.90;;;;;;4828751;29;20106;-62
2022/12/28 09:03:12;;;;;;;10.20;7.80;;;8.50;99.90;;;;;;4842894;29;20359;-61
2022/12/28 09:05:38;;;;;;;11.82;8.38;;;8.60;99.90;;;;;;4842561;29;20086;-61
2022/12/28 09:08:05;;;;;;;8.85;7.65;;;8.60;99.90;;;;;;4841870;29;20060;-61
2022/12/28 09:10:31;;;;;;;7.43;6.72;;;8.60;99.90;;;;;;4829510;29;20080;-61
2022/12/28 09:12:57;;;;;;;7.28;6.22;;;8.60;99.90;;;;;;4840444;29;20568;-62
2022/12/28 09:15:23;;;;;;;6.88;5.85;;;8.50;99.90;;;;;;4833977;29;20145;-62
2022/12/28 09:17:49;;;;;;;6.32;5.60;;;8.60;99.90;;;;;;4842877;29;20132;-61
2022/12/28 09:20:15;;;;;;;5.05;4.50;;;8.50;99.90;;;;;;4840308;29;20132;-62
2022/12/28 09:22:40;;;;;;;6.03;4.88;;;8.50;99.90;;;;;;4838533;29;20132;-61
2022/12/28 09:25:07;;;;;;;5.60;4.80;;;8.50;99.90;;;;;;4842291;29;20057;-61
2022/12/28 09:27:32;;;;;;;7.22;4.30;;;8.60;99.90;;;;;;4839876;29;20058;-62
2022/12/28 09:29:58;;;;;;;4.97;4.47;;;8.60;99.90;;;;;;4840505;29;21062;-62
2022/12/28 09:32:24;;;;;;;5.40;4.38;;;8.60;99.90;;;;;;4842440;29;20095;-61
2022/12/28 09:34:51;;;;;;;4.63;4.15;;;8.60;99.90;;;;;;4839482;29;20179;-61
2022/12/28 09:37:16;;;;;;;5.55;4.97;;;8.60;99.90;;;;;;4841247;29;20057;-61
2022/12/28 09:39:42;;;;;;;6.00;5.13;;;8.60;99.90;;;;;;4821099;29;20049;-61
2022/12/28 09:42:16;;;;;;;7.07;5.18;;;8.60;99.90;;;;;;4839844;29;20064;-61
2022/12/28 09:44:54;;;;;;;7.55;6.15;;;8.60;99.90;;;;;;4837777;29;20042;-62
2022/12/28 09:47:32;;;;;;;6.57;5.88;;;8.60;99.90;;;;;;4838849;29;20106;-62
2022/12/28 09:50:23;;;;;;;8.55;5.90;;;8.70;99.90;;;;;;4841149;29;20054;-61
2022/12/28 09:53:04;;;;;;;8.65;5.57;;;8.70;99.90;;;;;;4840477;29;20052;-62
2022/12/28 09:55:38;;;;;;;8.93;5.82;;;8.70;99.90;;;;;;4838238;29;20072;-61
2022/12/28 09:58:12;;;;;;;6.15;5.50;;;8.70;99.90;;;;;;4837468;29;20171;-62
2022/12/28 10:00:48;;;;;;;5.93;5.30;;;8.70;99.90;;;;;;4832638;29;20045;-61
2022/12/28 10:03:19;;;;;;;5.35;4.82;;;8.70;99.90;;;;;;4840614;29;20062;-61
2022/12/28 10:05:45;;;;;;;6.60;4.78;;;8.70;99.90;;;;;;4844587;29;20045;-62
2022/12/28 10:08:17;;;;;;;3.97;3.58;;;8.70;99.90;;;;;;4838389;29;20045;-61
2022/12/28 10:10:43;;;;;;;4.68;4.18;;;8.70;99.90;;;;;;4821699;29;20057;-61
2022/12/28 10:13:37;;;;;;;4.43;3.83;;;8.80;99.90;;;;;;4841216;29;20064;-61
2022/12/28 10:16:05;;;;;;;5.35;4.38;;;8.80;99.90;;;;;;4840439;29;20122;-61
2022/12/28 10:18:34;;;;;;;4.65;4.15;;;8.80;99.90;;;;;;4838793;29;20118;-62
2022/12/28 10:21:00;;;;;;;4.45;3.90;;;8.80;99.90;;;;;;4838027;29;20046;-61
2022/12/28 10:23:30;;;;;;;4.22;3.80;;;8.80;99.90;;;;;;4837838;29;20088;-62
2022/12/28 10:25:57;;;;;;;4.40;3.90;;;8.80;99.90;;;;;;4836059;29;20060;-62
2022/12/28 10:28:30;;;;;;;5.25;3.58;;;8.80;99.90;;;;;;4823526;29;20065;-61
2022/12/28 10:31:09;;;;;;;;;;;8.80;99.90;;;;;;4840318;29;20054;-62
2022/12/28 10:33:39;;;;;;;4.90;4.15;;;8.80;99.90;;;;;;4842021;29;19924;-62
2022/12/28 10:36:11;;;;;;;4.55;3.95;;;8.80;99.90;;;;;;4842229;29;20050;-62
2022/12/28 10:38:40;;;;;;;4.93;4.28;;;8.80;99.90;;;;;;4837333;29;20069;-62
2022/12/28 10:41:10;;;;;;;5.10;4.60;;;8.70;99.90;;;;;;4839172;29;20481;-62
2022/12/28 10:43:41;;;;;;;6.18;4.55;;;8.80;99.90;;;;;;4840200;29;20475;-62
2022/12/28 10:46:16;;;;;;;6.05;5.28;;;8.70;99.90;;;;;;4840408;29;20049;-61
2022/12/28 10:48:53;;;;;;;7.63;5.93;;;8.80;99.90;;;;;;4842291;29;20081;-62
2022/12/28 10:51:22;;;;;;;12.85;6.68;;;8.70;99.90;;;;;;4838367;29;20136;-62
2022/12/28 10:53:50;;;;;;;9.38;7.32;;;8.70;99.90;;;;;;4840753;29;20122;-62
2022/12/28 10:56:28;;;;;;;11.48;8.00;;;8.80;99.90;;;;;;4831650;29;20412;-62
2022/12/28 10:59:09;;;;;;;9.50;7.72;;;8.80;99.90;;;;;;4838852;29;20133;-61
2022/12/28 11:01:35;;;;;;;11.15;8.35;;;8.80;99.90;;;;;;4838089;29;20169;-62
2022/12/28 11:04:06;;;;;;;8.82;7.30;;;8.80;99.90;;;;;;4842677;29;20052;-61
2022/12/28 11:06:34;;;;;;;10.50;7.60;;;8.80;99.90;;;;;;4839191;29;20076;-62
2022/12/28 11:09:05;;;;;;;9.63;7.18;;;8.80;99.90;;;;;;4842200;29;20057;-61
2022/12/28 11:11:32;;;;;;;9.15;7.63;;;8.80;99.90;;;;;;4839057;29;20085;-61
2022/12/28 11:14:28;;;;;;;10.25;7.15;;;8.80;99.90;;;;;;4842809;29;20104;-61
2022/12/28 11:16:54;;;;;;;10.02;7.50;;;8.90;99.90;;;;;;4837375;29;20065;-62
2022/12/28 11:19:21;;;;;;;9.30;6.90;;;8.90;99.90;;;;;;4835205;29;20469;-60
2022/12/28 11:21:48;;;;;;;7.50;6.35;;;8.90;99.90;;;;;;4836376;29;20489;-61
2022/12/28 11:24:16;;;;;;;7.22;5.90;;;8.90;99.90;;;;;;4833782;29;20057;-62
2022/12/28 11:26:44;;;;;;;6.65;5.50;;;8.90;99.90;;;;;;4835598;29;20060;-62
2022/12/28 11:29:13;;;;;;;7.88;5.65;;;8.90;99.90;;;;;;4838662;29;20378;-61
2022/12/28 11:31:58;;;;;;;6.40;5.20;;;8.90;99.90;;;;;;4842907;29;20116;-62
2022/12/28 11:34:27;;;;;;;6.60;5.50;;;8.90;99.90;;;;;;4840259;29;20046;-61
2022/12/28 11:36:54;;;;;;;7.05;5.20;;;8.90;99.90;;;;;;4841046;29;20061;-62
2022/12/28 11:39:25;;;;;;;6.18;4.80;;;8.90;99.90;;;;;;4823258;29;20049;-62
2022/12/28 11:41:53;;;;;;;5.37;4.40;;;9.00;99.90;;;;;;4836976;29;20040;-62
2022/12/28 11:44:39;;;;;;;6.75;4.55;;;9.00;99.90;;;;;;4836937;29;20386;-62
2022/12/28 11:47:24;;;;;;;4.70;4.00;;;9.00;99.90;;;;;;4830370;29;20069;-61
2022/12/28 11:49:52;;;;;;;5.25;4.25;;;9.00;99.90;;;;;;4837883;29;20042;-61
2022/12/28 11:52:32;;;;;;;5.88;4.10;;;9.00;99.90;;;;;;4840885;29;20489;-61
2022/12/28 11:55:01;;;;;;;6.38;4.07;;;9.00;99.90;;;;;;4840988;29;20041;-61
2022/12/28 11:57:42;;;;;;;4.03;3.63;;;9.00;99.90;;;;;;4843026;29;20045;-60
2022/12/28 12:00:19;;;;;;;4.97;4.30;;;9.00;99.90;;;;;;4827768;29;20645;-61
2022/12/28 12:02:55;;;;;;;5.38;3.60;;;9.00;99.90;;;;;;4830061;29;20117;-60
2022/12/28 12:05:36;;;;;;;4.93;3.60;;;9.00;99.90;;;;;;4838711;29;20405;-62
2022/12/28 12:08:22;;;;;;;5.13;4.03;;;9.00;99.90;;;;;;4842448;29;20557;-61
2022/12/28 12:11:08;;;;;;;5.03;3.70;;;9.00;99.90;;;;;;4815118;29;20064;-61
2022/12/28 12:13:47;;;;;;;5.75;4.22;;;9.00;99.90;;;;;;4839544;29;20054;-61
2022/12/28 12:17:04;;;;;;;5.13;4.30;;;9.00;99.90;;;;;;4840632;29;20046;-62
2022/12/28 12:19:36;;;;;;;4.57;4.18;;;9.00;99.90;;;;;;4811309;29;20175;-62
2022/12/28 12:22:14;;;;;;;5.95;4.70;;;9.00;99.90;;;;;;4841678;29;20053;-62
2022/12/28 12:25:14;;;;;;;5.78;5.00;;;9.00;99.90;;;;;;4825453;29;20061;-62
2022/12/28 12:27:51;;;;;;;4.95;4.45;;;9.00;99.90;;;;;;4825126;29;22676;-60
2022/12/28 12:30:20;;;;;;;8.43;4.78;;;9.00;99.90;;;;;;4838176;29;20074;-61
2022/12/28 12:32:51;;;;;;;6.50;5.20;;;9.00;99.90;;;;;;4828799;29;20141;-62
2022/12/28 12:35:26;;;;;;;6.60;4.97;;;9.00;99.90;;;;;;4830005;29;20492;-62
2022/12/28 12:38:03;;;;;;;5.25;4.75;;;8.90;99.90;;;;;;4839598;29;20046;-61
2022/12/28 12:40:59;;;;;;;6.55;4.93;;;9.00;99.90;;;;;;4839513;29;20080;-61
2022/12/28 12:43:52;;;;;;;10.02;6.80;;;9.00;99.90;;;;;;4832422;29;20050;-61
2022/12/28 12:46:48;;;;;;;4.95;4.40;;;9.00;99.90;;;;;;4840114;29;20072;-62
2022/12/28 12:49:33;;;;;;;5.15;4.18;;;8.90;99.90;;;;;;4826766;29;20045;-61
2022/12/28 12:52:25;;;;;;;5.10;4.60;;;8.90;99.90;;;;;;4841979;29;20057;-61
2022/12/28 12:55:09;;;;;;;7.25;4.45;;;9.00;99.90;;;;;;4838062;29;20157;-61
2022/12/28 12:57:57;;;;;;;5.60;4.05;;;8.90;99.90;;;;;;4841349;29;20382;-61
2022/12/28 13:00:47;;;;;;;7.07;4.13;;;9.00;99.90;;;;;;4830629;29;20046;-62
2022/12/28 13:03:39;;;;;;;4.25;3.85;;;9.00;99.90;;;;;;4827443;29;20053;-61
2022/12/28 13:06:06;;;;;;;6.85;3.90;;;8.90;99.90;;;;;;4818790;29;20069;-61
2022/12/28 13:08:40;;;;;;;3.90;3.47;;;8.90;99.90;;;;;;4838611;29;20049;-61
2022/12/28 13:11:11;;;;;;;3.80;3.10;;;9.00;99.90;;;;;;4839943;29;20066;-61
2022/12/28 13:13:39;;;;;;;4.00;3.55;;;9.00;99.90;;;;;;4840985;29;20054;-61
2022/12/28 13:16:17;;;;;;;3.90;3.08;;;8.90;99.90;;;;;;4841490;29;20069;-61
2022/12/28 13:18:58;;;;;;;3.67;3.25;;;9.00;99.90;;;;;;4839558;29;20050;-61
2022/12/28 13:21:27;;;;;;;3.40;3.10;;;8.90;99.90;;;;;;4841166;29;20038;-61
2022/12/28 13:23:52;;;;;;;4.38;3.20;;;9.00;99.90;;;;;;4837891;29;20125;-60
2022/12/28 13:26:26;;;;;;;4.93;3.63;;;8.90;99.90;;;;;;4839855;29;20127;-62
2022/12/28 13:29:07;;;;;;;4.07;3.10;;;8.90;99.90;;;;;;4842146;29;20053;-62
2022/12/28 13:31:36;;;;;;;3.83;3.22;;;8.90;99.90;;;;;;4839063;29;20390;-61
2022/12/28 13:34:20;;;;;;;4.55;3.75;;;8.90;99.90;;;;;;4845948;29;20595;-62